• Join FlightAware (Why Join?)
  • Login
  • US Flag 
03:52AM EST


 

Airport Tracker/Info


-or-


 

Live Flight TrackerFlight Track Log ✈ N152SR ✈ 03-May-2013 ✈ KBED - KCDW

Flight Track Log - Related Links

Times and Time Zones

All times are in EDT time to prevent confusion due to time zone crossing. See the N152SR flight status page for this flight to view local times or setup timezone preferences in your user account.

Time Position Orientation Groundspeed Altitude Reporting Facility
EDT Latitude Longitude Course Direction KTS MPH feet Rate Location/Type
03:29PM 42.4667 -71.2667 216° Southwest 75 86 900  Level KA90
03:30PM 42.4500 -71.2833 216° Southwest 137 158 1,900 900 Climbing KA90
03:31PM 42.4167 -71.3167 216° Southwest 151 174 2,800 840 Climbing KA90
03:32PM 42.4000 -71.3667 246° West 156 180 3,500 900 Climbing KA90
03:33PM 42.3667 -71.4167 228° Southwest 149 171 4,600 1,020 Climbing KA90
03:34PM 42.3333 -71.4500 216° Southwest 148 170 5,600 780 Climbing KA90
03:34PM 42.3150 -71.4769 227° Southwest 145 167 5,900 180 Climbing Boston Center
03:35PM 42.2842 -71.5225 228° Southwest 178 205 5,900  Level Boston Center
03:36PM 42.2469 -71.5706 224° Southwest 188 216 5,900  Level Boston Center
03:37PM 42.2058 -71.6244 224° Southwest 189 217 6,000  Climbing Boston Center
03:38PM 42.1914 -71.6781 250° West 193 222 6,000  Level Boston Center
03:39PM 42.1733 -71.7481 251° West 190 219 6,000  Level Boston Center
03:40PM 42.1547 -71.8156 250° West 192 221 6,000  Level Boston Center
03:41PM 42.1364 -71.8886 251° West 192 221 6,000  Level Boston Center
03:42PM 42.1181 -71.9669 253° West 188 216 6,000  Level Boston Center
03:43PM 42.1036 -72.0203 250° West 188 216 6,000  Level Boston Center
03:44PM 42.0664 -72.0708 225° Southwest 187 215 6,000  Level Boston Center
03:45PM 42.0289 -72.1158 222° Southwest 183 211 6,000  Level Boston Center
03:46PM 41.9894 -72.1608 220° Southwest 182 209 6,000  Level Boston Center
03:47PM 41.9519 -72.2000 218° Southwest 178 205 6,000  Level Boston Center
03:48PM 41.9064 -72.2561 223° Southwest 182 209 6,000  Level Boston Center
03:49PM 41.8731 -72.2922 219° Southwest 180 207 6,000  Level Boston Center
03:50PM 41.8336 -72.3369 220° Southwest 182 209 6,000  Level Boston Center
03:51PM 41.7897 -72.3844 219° Southwest 184 212 6,000  Level Boston Center
03:52PM 41.7564 -72.4261 223° Southwest 182 209 6,000  Level Boston Center
03:53PM 41.7147 -72.4678 217° Southwest 183 211 6,000  Level Boston Center
03:54PM 41.6750 -72.5122 220° Southwest 184 212 6,000  Level Boston Center
03:55PM 41.6375 -72.5567 222° Southwest 185 213 6,000  Level Boston Center
03:56PM 41.5978 -72.6039 222° Southwest 181 208 6,000  Level Boston Center
03:57PM 41.5603 -72.6508 223° Southwest 183 211 6,000  Level Boston Center
04:00PM 41.5167 -72.8167 251° West 187 215 6,100  Climbing New York TRACON
04:01PM 41.5000 -72.8833 252° West 193 222 6,100  Level New York TRACON
04:02PM 41.4833 -72.9500 252° West 192 221 6,100  Level New York TRACON
04:03PM 41.4500 -73.0000 228° Southwest 190 219 6,100  Level New York TRACON
04:04PM 41.4333 -73.0667 252° West 190 219 6,100  Level New York TRACON
04:05PM 41.4167 -73.1333 252° West 192 221 6,100  Level New York TRACON
04:06PM 41.4000 -73.2000 252° West 190 219 6,100  Level New York TRACON
04:07PM 41.3833 -73.2667 252° West 187 215 6,100  Level New York TRACON
04:08PM 41.3500 -73.3333 236° Southwest 189 217 6,100  Level New York TRACON
04:09PM 41.3333 -73.4000 252° West 186 214 6,100  Level New York TRACON
04:10PM 41.3167 -73.4667 252° West 187 215 6,100  Level New York TRACON
04:11PM 41.3000 -73.5333 252° West 187 215 6,100  Level New York TRACON
04:13PM 41.2667 -73.6667 252° West 192 221 6,100 -300 Level New York TRACON
04:14PM 41.2333 -73.7000 217° Southwest 184 212 5,400 -900 Descending New York TRACON
04:15PM 41.2000 -73.7500 228° Southwest 180 207 4,400 -840 Descending New York TRACON
04:16PM 41.1667 -73.8000 228° Southwest 168 193 3,800 -420 Descending New York TRACON
04:17PM 41.1500 -73.8667 252° West 156 180 3,600 -360 Descending New York TRACON
04:18PM 41.1500 -73.9167 270° West 165 190 3,100 -600 Descending New York TRACON
04:19PM 41.1333 -73.9833 252° West 160 184 2,500 -300 Descending New York TRACON
04:20PM 41.1167 -74.0167 236° Southwest 144 166 2,500  Level New York TRACON